Time;durP1;ratioP1;P1;durP2;ratioP2;P2;SDS_P1;SDS_P2;PMS_P1;PMS_P2;Temp;Humidity;BMP_temperature;BMP_pressure;BME280_temperature;BME280_humidity;BME280_pressure;Samples;Min_cycle;Max_cycle;Signal;HPM_P1;HPM_P2
2022/05/06 00:00:26;;;;;;;23.35;15.02;;;;;;;9.96;70.55;102366.44;5073169;28;20045;-69
2022/05/06 00:02:54;;;;;;;24.48;14.68;;;;;;;9.95;71.25;102365.53;5069785;28;20041;-70
2022/05/06 00:05:21;;;;;;;22.00;14.07;;;;;;;9.95;71.88;102362.91;5071718;28;20533;-70
2022/05/06 00:07:48;;;;;;;22.85;13.95;;;;;;;9.95;71.71;102369.94;5070420;28;20041;-70
2022/05/06 00:10:15;;;;;;;21.83;13.88;;;;;;;9.93;71.65;102369.94;5073107;28;20577;-70
2022/05/06 00:12:42;;;;;;;25.10;14.88;;;;;;;9.93;71.78;102376.97;5072130;28;20041;-70
2022/05/06 00:15:11;;;;;;;27.00;14.15;;;;;;;9.89;71.50;102377.84;5071234;28;20071;-71
2022/05/06 00:17:39;;;;;;;25.20;14.23;;;;;;;9.85;71.45;102376.97;5070353;28;20048;-68
2022/05/06 00:20:06;;;;;;;25.05;14.75;;;;;;;9.83;71.70;102367.34;5067808;28;20098;-67
2022/05/06 00:22:33;;;;;;;23.92;14.65;;;;;;;9.82;71.70;102371.72;5070232;28;20056;-67
2022/05/06 00:25:00;;;;;;;25.10;15.35;;;;;;;9.80;71.60;102370.88;5071463;28;20033;-68
2022/05/06 00:27:27;;;;;;;22.95;13.68;;;;;;;9.77;71.81;102373.50;5066727;28;20044;-70
2022/05/06 00:29:56;;;;;;;21.83;14.32;;;;;;;9.73;71.80;102372.63;5070827;28;20045;-69
2022/05/06 00:32:24;;;;;;;21.48;14.27;;;;;;;9.72;71.81;102372.63;5071423;28;20056;-69
2022/05/06 00:34:52;;;;;;;23.38;14.25;;;;;;;9.67;71.88;102369.13;5069591;28;20040;-67
2022/05/06 00:37:19;;;;;;;23.33;13.77;;;;;;;9.66;71.86;102384.06;5070113;28;20155;-68
2022/05/06 00:39:46;;;;;;;24.00;15.25;;;;;;;9.63;71.89;102374.41;5070125;28;20037;-68
2022/05/06 00:42:15;;;;;;;23.17;15.02;;;;;;;9.58;72.00;102378.81;5071796;28;20043;-68
2022/05/06 00:44:43;;;;;;;26.63;15.98;;;;;;;9.57;72.11;102376.16;5070481;28;20099;-69
2022/05/06 00:47:16;;;;;;;25.48;15.85;;;;;;;9.55;72.08;102384.06;5058008;28;20042;-70
2022/05/06 00:49:43;;;;;;;27.75;17.15;;;;;;;9.52;72.07;102376.16;5070264;28;20132;-69
2022/05/06 00:52:11;;;;;;;27.35;15.75;;;;;;;9.51;72.37;102384.97;5071035;28;20084;-70
2022/05/06 00:54:38;;;;;;;25.60;17.02;;;;;;;9.50;72.39;102379.69;5068310;28;20120;-70
2022/05/06 00:57:10;;;;;;;26.48;17.70;;;;;;;9.47;72.46;102384.06;5087752;28;20045;-70
2022/05/06 01:00:17;;;;;;;29.08;19.05;;;;;;;9.47;72.80;102385.84;5069623;28;20068;-70
2022/05/06 01:02:26;;;;;;;27.75;18.15;;;;;;;9.44;72.30;102380.56;5084946;28;20049;-68
2022/05/06 01:04:56;;;;;;;28.58;17.55;;;;;;;9.43;72.77;102384.06;5069985;28;20069;-70
2022/05/06 01:07:24;;;;;;;29.38;19.80;;;;;;;9.42;72.97;102383.22;5070634;28;20044;-68
2022/05/06 01:09:52;;;;;;;26.98;18.05;;;;;;;9.41;72.84;102380.59;5073555;28;20045;-69
2022/05/06 01:12:20;;;;;;;29.80;18.98;;;;;;;9.39;72.72;102379.72;5069302;28;20115;-70
2022/05/06 01:14:47;;;;;;;29.00;17.73;;;;;;;9.38;73.17;102381.44;5069311;28;20033;-69
2022/05/06 01:17:23;;;;;;;30.42;19.95;;;;;;;9.35;73.02;102386.75;5069610;28;20052;-69
2022/05/06 01:19:50;;;;;;;33.17;18.55;;;;;;;9.33;73.54;102380.59;5066460;28;20491;-69
2022/05/06 01:22:17;;;;;;;29.02;19.20;;;;;;;9.32;73.27;102382.31;5067872;28;20037;-68
2022/05/06 01:24:45;;;;;;;36.55;19.77;;;;;;;9.29;73.31;102381.47;5071651;28;20056;-68
2022/05/06 01:27:20;;;;;;;31.25;19.40;;;;;;;9.27;73.47;102386.72;5071047;28;20045;-68
2022/05/06 01:29:51;;;;;;;31.48;18.60;;;;;;;9.26;73.65;102386.75;5070170;28;20797;-69
2022/05/06 01:32:22;;;;;;;28.65;18.48;;;;;;;9.19;73.71;102375.34;5065675;28;20048;-69
2022/05/06 01:34:53;;;;;;;29.92;18.75;;;;;;;9.15;73.57;102379.72;5061994;28;20044;-69
2022/05/06 01:37:25;;;;;;;27.42;17.88;;;;;;;9.14;73.90;102375.34;5069242;28;20143;-68
2022/05/06 01:39:59;;;;;;;28.40;17.85;;;;;;;9.10;73.76;102380.59;5068764;28;20742;-68
2022/05/06 01:42:34;;;;;;;31.83;21.27;;;;;;;9.06;73.76;102387.59;5055746;28;20046;-69
2022/05/06 01:45:10;;;;;;;33.50;21.48;;;;;;;9.04;74.03;102377.94;5065579;28;20071;-69
2022/05/06 01:47:42;;;;;;;34.72;20.58;;;;;;;9.01;73.87;102386.72;5060764;28;20045;-69
2022/05/06 01:50:12;;;;;;;32.22;19.55;;;;;;;8.98;74.07;102389.34;5044806;28;20110;-68
2022/05/06 01:52:44;;;;;;;32.15;20.98;;;;;;;8.96;74.00;102383.19;5061146;28;20096;-68
2022/05/06 01:55:12;;;;;;;31.85;20.30;;;;;;;8.95;74.59;102391.97;5086436;28;20084;-69
2022/05/06 01:57:59;;;;;;;33.92;20.65;;;;;;;8.93;74.52;102388.47;5071856;28;20048;-68
2022/05/06 02:00:30;;;;;;;34.78;21.92;;;;;;;8.94;74.53;102391.09;5067858;28;20041;-69
2022/05/06 02:02:58;;;;;;;33.65;20.73;;;;;;;8.95;74.55;102397.25;5085776;28;20679;-68
2022/05/06 02:05:33;;;;;;;34.60;22.77;;;;;;;8.93;74.41;102393.72;5068016;28;20045;-69
2022/05/06 02:08:03;;;;;;;39.78;22.30;;;;;;;8.92;74.70;102397.22;5069092;28;20049;-69
2022/05/06 02:10:32;;;;;;;40.63;21.98;;;;;;;8.90;74.82;102397.25;5069823;28;20044;-70
2022/05/06 02:13:02;;;;;;;37.35;22.50;;;;;;;8.88;74.67;102396.34;5068643;28;20514;-70
2022/05/06 02:15:42;;;;;;;32.55;20.83;;;;;;;8.84;74.82;102387.59;5072130;28;20065;-69
2022/05/06 02:18:20;;;;;;;39.95;23.52;;;;;;;8.82;74.91;102389.31;5056271;28;20037;-70
2022/05/06 02:21:23;;;;;;;33.17;22.63;;;;;;;8.80;74.95;102396.34;5047422;28;20090;-69
2022/05/06 02:24:00;;;;;;;34.55;22.15;;;;;;;8.79;75.16;102394.56;5086909;28;20048;-71
2022/05/06 02:26:29;;;;;;;32.15;21.48;;;;;;;8.76;74.93;102391.94;5068617;28;20419;-71
2022/05/06 02:29:01;;;;;;;41.47;23.92;;;;;;;8.74;74.82;102391.06;5069939;28;20102;-70
2022/05/06 02:34:17;;;;;;;36.88;22.50;;;;;;;8.68;75.13;102386.69;5080649;28;20195;-68
2022/05/06 02:37:06;;;;;;;38.90;22.50;;;;;;;8.64;75.10;102390.16;5067499;28;20053;-68
2022/05/06 02:39:44;;;;;;;38.35;24.42;;;;;;;8.63;75.09;102384.91;5064189;28;20043;-69
2022/05/06 02:42:17;;;;;;;35.47;23.48;;;;;;;8.61;75.25;102386.66;5083979;28;20044;-68
2022/05/06 02:44:51;;;;;;;35.97;22.80;;;;;;;8.58;75.19;102384.91;5067657;28;20041;-68
2022/05/06 02:47:20;;;;;;;40.22;26.13;;;;;;;8.58;75.57;102379.63;5087308;28;20554;-68
2022/05/06 02:49:47;;;;;;;41.78;25.23;;;;;;;8.58;75.43;102390.16;5071991;28;20103;-69
2022/05/06 02:52:16;;;;;;;42.92;26.65;;;;;;;8.58;75.87;102379.63;5071117;28;20037;-69
2022/05/06 02:54:45;;;;;;;48.50;28.42;;;;;;;8.58;75.81;102387.53;5073490;28;20065;-68
2022/05/06 02:57:15;;;;;;;41.22;26.92;;;;;;;8.58;75.96;102387.53;5071606;28;20213;-68
2022/05/06 02:59:44;;;;;;;45.40;29.35;;;;;;;8.59;75.92;102380.50;5087001;28;20512;-69
2022/05/06 03:02:14;;;;;;;46.00;28.45;;;;;;;8.59;75.86;102388.38;5081464;28;20857;-68
2022/05/06 03:04:41;;;;;;;49.28;29.55;;;;;;;8.59;76.01;102384.03;5072994;28;20043;-67
2022/05/06 03:07:11;;;;;;;69.85;40.72;;;;;;;8.65;77.27;102384.03;5069286;28;20120;-66
2022/05/06 03:09:44;;;;;;;57.13;34.25;;;;;;;8.70;77.31;102384.03;5071190;28;20068;-68
2022/05/06 03:12:11;;;;;;;79.13;42.63;;;;;;;8.74;78.34;102396.34;5070720;28;20832;-69
2022/05/06 03:14:49;;;;;;;56.42;33.83;;;;;;;8.78;78.38;102381.44;5070076;28;20076;-68
2022/05/06 03:17:25;;;;;;;55.33;34.92;;;;;;;8.77;78.03;102383.16;5060493;28;20056;-69
2022/05/06 03:19:54;;;;;;;60.05;35.67;;;;;;;8.75;77.70;102381.41;5074007;28;20049;-70
2022/05/06 03:22:22;;;;;;;55.72;34.05;;;;;;;8.74;77.50;102382.28;5068582;28;20135;-70
2022/05/06 03:24:49;;;;;;;67.15;40.17;;;;;;;8.72;78.05;102384.94;5073130;28;20511;-69
2022/05/06 03:30:04;;;;;;;67.10;37.15;;;;;;;8.74;78.27;102388.44;5072878;28;20080;-70
2022/05/06 03:32:35;;;;;;;63.65;38.08;;;;;;;8.73;77.92;102383.16;5068880;28;20056;-70
2022/05/06 03:35:04;;;;;;;61.78;36.70;;;;;;;8.70;77.88;102379.66;5088903;28;20499;-71
2022/05/06 03:37:33;;;;;;;84.03;46.95;;;;;;;8.73;80.46;102384.06;5073153;28;20042;-70
2022/05/06 03:40:00;;;;;;;78.85;43.33;;;;;;;8.77;80.15;102384.94;5071192;28;20052;-70
2022/05/06 03:42:31;;;;;;;72.93;43.10;;;;;;;8.79;80.33;102386.69;5084500;28;20502;-70
2022/05/06 03:44:59;;;;;;;96.20;49.42;;;;;;;8.83;82.51;102390.19;5072441;28;20510;-69
2022/05/06 03:47:27;;;;;;;92.85;47.88;;;;;;;8.90;83.91;102389.34;5069604;28;20083;-68
2022/05/06 03:52:40;;;;;;;87.70;44.67;;;;;;;8.96;83.67;102386.72;5079893;28;20399;-68
2022/05/06 03:55:08;;;;;;;93.22;48.42;;;;;;;8.99;83.96;102386.72;5088154;28;20053;-68
2022/05/06 03:57:36;;;;;;;102.30;51.20;;;;;;;9.01;84.92;102391.97;5070664;28;20081;-68
2022/05/06 04:00:05;;;;;;;97.72;48.55;;;;;;;9.01;84.45;102397.25;5070603;28;20499;-69
2022/05/06 04:02:43;;;;;;;100.75;47.95;;;;;;;8.99;83.29;102392.00;5069070;28;20108;-69
2022/05/06 04:05:16;;;;;;;94.15;49.38;;;;;;;8.98;84.01;102398.13;5071174;28;20037;-69
2022/05/06 04:07:44;;;;;;;87.40;44.42;;;;;;;8.98;83.50;102387.59;5088291;28;20133;-69
2022/05/06 04:10:15;;;;;;;82.28;42.78;;;;;;;8.96;83.05;102397.25;5072093;28;20045;-68
2022/05/06 04:12:45;;;;;;;93.65;46.85;;;;;;;8.98;84.10;102398.13;5069162;28;20521;-69
2022/05/06 04:15:13;;;;;;;94.78;47.72;;;;;;;8.97;84.89;102401.63;5059468;28;20065;-68
2022/05/06 04:17:43;;;;;;;361.48;50.38;;;;;;;9.00;84.94;102406.88;5061659;28;20639;-69
2022/05/06 04:25:51;;;;;;;489.33;54.92;;;;;;;9.02;85.13;102402.50;5059548;28;20498;-68
2022/05/06 04:28:20;;;;;;;586.28;55.42;;;;;;;9.02;85.58;102406.88;5069749;28;20552;-69
2022/05/06 04:30:52;;;;;;;552.75;55.67;;;;;;;8.95;85.56;102406.00;5070579;28;20132;-71
2022/05/06 04:33:22;;;;;;;297.20;47.30;;;;;;;8.95;85.40;102410.41;5060190;28;20521;-71
2022/05/06 04:35:50;;;;;;;501.73;50.90;;;;;;;8.98;85.42;102411.28;5085546;28;20127;-71
2022/05/06 04:38:23;;;;;;;510.25;55.35;;;;;;;9.00;85.57;102408.63;5066110;28;20041;-71
2022/05/06 04:40:55;;;;;;;440.98;50.67;;;;;;;9.02;85.36;102414.78;5071023;28;20505;-70
2022/05/06 04:43:23;;;;;;;630.33;56.80;;;;;;;8.99;86.05;102418.28;5084651;28;20128;-70
2022/05/06 04:45:54;;;;;;;378.70;48.63;;;;;;;8.94;85.78;102421.78;5064821;28;20069;-69
2022/05/06 04:48:26;;;;;;;344.83;50.92;;;;;;;8.98;86.00;102423.53;5061700;28;20045;-70
2022/05/06 04:50:55;;;;;;;121.47;45.25;;;;;;;9.05;85.94;102421.78;5064369;28;20112;-70
2022/05/06 04:53:22;;;;;;;614.55;66.40;;;;;;;9.14;86.41;102424.44;5064851;28;20573;-71
2022/05/06 04:55:51;;;;;;;815.75;67.80;;;;;;;9.16;86.49;102425.31;5065448;28;20122;-70
2022/05/06 04:58:28;;;;;;;434.70;51.25;;;;;;;9.17;86.19;102427.06;5077272;28;20072;-70
2022/05/06 05:01:01;;;;;;;371.15;46.92;;;;;;;9.26;86.27;102431.47;5061102;28;20063;-69
2022/05/06 05:03:29;;;;;;;580.17;58.90;;;;;;;9.39;86.20;102427.09;5066072;28;20668;-70
2022/05/06 05:05:58;;;;;;;341.83;44.78;;;;;;;9.46;86.03;102434.97;5050790;28;20052;-70
2022/05/06 05:08:27;;;;;;;592.13;56.17;;;;;;;9.49;86.15;102436.75;5067769;28;20076;-70
2022/05/06 05:11:02;;;;;;;538.15;54.00;;;;;;;9.46;86.49;102437.59;5067567;28;20509;-70
2022/05/06 05:13:38;;;;;;;175.13;40.35;;;;;;;9.53;85.76;102442.88;5067139;28;20087;-69
2022/05/06 05:16:08;;;;;;;482.85;46.10;;;;;;;9.61;86.78;102441.97;5062450;28;21129;-69
2022/05/06 05:18:35;;;;;;;381.05;49.95;;;;;;;9.62;86.44;102442.88;5058437;28;20056;-70
2022/05/06 05:21:03;;;;;;;319.45;43.30;;;;;;;9.69;85.96;102435.84;5064301;28;20487;-69
2022/05/06 05:23:31;;;;;;;388.60;41.30;;;;;;;9.80;86.09;102444.63;5064873;28;20041;-70
2022/05/06 05:26:00;;;;;;;464.63;47.85;;;;;;;9.83;86.09;102441.97;5063524;28;20055;-70
2022/05/06 05:28:28;;;;;;;437.10;48.92;;;;;;;9.84;86.19;102440.22;5059208;28;20049;-71
2022/05/06 05:30:55;;;;;;;468.85;48.63;;;;;;;9.91;85.68;102440.22;5078294;28;20040;-71
2022/05/06 05:33:23;;;;;;;693.00;54.75;;;;;;;9.99;86.10;102447.22;5069011;28;20049;-71
2022/05/06 05:35:54;;;;;;;568.38;51.35;;;;;;;10.03;86.20;102446.31;5070252;28;20045;-71
2022/05/06 05:38:22;;;;;;;224.77;37.28;;;;;;;10.13;85.80;102450.66;5071570;28;20086;-71
2022/05/06 05:40:50;;;;;;;420.60;41.05;;;;;;;10.29;85.89;102454.16;5070322;28;20067;-71
2022/05/06 05:49:04;;;;;;;355.10;34.35;;;;;;;10.17;85.21;102464.75;5029805;28;20065;-70
2022/05/06 05:51:33;;;;;;;453.00;44.63;;;;;;;10.07;85.81;102455.97;5057336;28;21102;-70
2022/05/06 05:54:01;;;;;;;479.80;43.40;;;;;;;10.08;85.52;102461.22;5055812;28;20503;-71
2022/05/06 05:56:32;;;;;;;277.13;37.95;;;;;;;10.11;85.88;102457.72;5064372;28;20049;-70
2022/05/06 05:59:00;;;;;;;426.80;40.75;;;;;;;10.12;86.00;102459.50;5065828;28;20048;-69
2022/05/06 06:01:30;;;;;;;383.63;38.38;;;;;;;10.20;85.78;102454.19;5056885;28;20088;-70
2022/05/06 06:04:02;;;;;;;248.82;37.05;;;;;;;10.29;85.68;102453.28;5063253;28;20475;-70
2022/05/06 06:06:38;;;;;;;245.43;34.20;;;;;;;10.35;85.26;102454.13;5058640;28;20360;-70
2022/05/06 06:09:09;;;;;;;472.13;41.45;;;;;;;10.45;85.21;102448.88;5071542;28;20045;-68
2022/05/06 06:11:37;;;;;;;173.10;36.28;;;;;;;10.52;85.28;102456.75;5049642;28;20041;-70
2022/05/06 06:14:06;;;;;;;277.27;36.55;;;;;;;10.55;84.86;102453.22;5054108;28;20055;-70
2022/05/06 06:16:34;;;;;;;229.77;34.65;;;;;;;10.62;84.53;102447.03;5060812;28;20053;-69
2022/05/06 06:19:01;;;;;;;208.43;34.17;;;;;;;10.82;84.35;102452.19;5056571;28;20049;-70
2022/05/06 06:21:34;;;;;;;204.73;33.10;;;;;;;11.00;84.05;102448.56;5051462;28;20120;-69
2022/05/06 06:24:02;;;;;;;103.68;31.73;;;;;;;11.09;83.35;102445.00;5064069;28;20128;-70
2022/05/06 06:26:29;;;;;;;170.07;30.63;;;;;;;11.19;83.06;102451.97;5059452;28;20175;-68
2022/05/06 06:29:03;;;;;;;285.45;30.65;;;;;;;11.22;82.17;102456.34;5082702;28;20057;-71
2022/05/06 06:31:32;;;;;;;236.77;30.88;;;;;;;11.17;81.43;102455.50;5066112;28;20094;-69
2022/05/06 06:34:01;;;;;;;297.67;31.58;;;;;;;11.23;81.68;102460.72;5049945;28;20038;-69
2022/05/06 06:36:34;;;;;;;305.85;31.48;;;;;;;11.25;81.69;102458.97;5052319;28;20577;-70
2022/05/06 06:39:03;;;;;;;407.70;31.48;;;;;;;11.29;80.82;102465.94;5062031;28;20483;-70
2022/05/06 06:41:35;;;;;;;207.30;27.63;;;;;;;11.38;80.62;102458.88;5054786;28;20037;-70
2022/05/06 06:44:02;;;;;;;88.55;27.23;;;;;;;11.51;80.34;102468.44;5060009;28;20125;-70
2022/05/06 06:46:56;;;;;;;67.68;26.65;;;;;;;11.61;80.07;102467.47;5060320;28;20061;-69
2022/05/06 06:49:46;;;;;;;214.68;30.98;;;;;;;11.70;79.60;102463.00;5045124;28;20064;-69
2022/05/06 06:52:31;;;;;;;55.33;25.63;;;;;;;11.79;79.28;102462.91;5065677;28;20080;-69
2022/05/06 06:54:59;;;;;;;52.88;26.80;;;;;;;11.94;78.41;102460.13;5059460;28;20125;-68
2022/05/06 06:57:30;;;;;;;51.90;25.75;;;;;;;12.13;78.17;102459.09;5059597;28;20053;-69
2022/05/06 06:59:57;;;;;;;72.63;25.73;;;;;;;12.34;77.00;102463.25;5087779;28;20941;-69
2022/05/06 07:02:25;;;;;;;79.35;25.23;;;;;;;12.47;76.32;102469.25;5068918;28;20044;-69
2022/05/06 07:04:52;;;;;;;51.80;25.60;;;;;;;12.60;75.79;102473.50;5063749;28;20124;-68
2022/05/06 07:12:53;;;;;;;174.07;28.60;;;;;;;12.81;73.61;102480.31;5061483;28;20041;-69
2022/05/06 07:15:23;;;;;;;59.08;29.05;;;;;;;12.87;73.83;102490.78;5047374;28;20790;-69
2022/05/06 07:17:50;;;;;;;107.22;33.38;;;;;;;12.95;73.73;102490.69;5064189;28;20048;-69
2022/05/06 07:20:18;;;;;;;78.57;31.10;;;;;;;12.99;73.41;102489.72;5068595;28;20069;-70
2022/05/06 07:22:45;;;;;;;58.90;30.17;;;;;;;13.00;73.21;102494.13;5066798;28;20076;-70
2022/05/06 07:25:16;;;;;;;56.50;27.25;;;;;;;12.95;72.83;102500.38;5066849;28;20447;-68
2022/05/06 07:27:45;;;;;;;53.80;26.80;;;;;;;12.91;73.18;102501.34;5064924;28;20041;-67
2022/05/06 07:30:13;;;;;;;54.38;26.25;;;;;;;12.80;73.01;102505.00;5067005;28;20033;-68
2022/05/06 07:32:40;;;;;;;54.38;26.00;;;;;;;12.78;73.57;102517.38;5066694;28;20046;-69
2022/05/06 07:35:08;;;;;;;50.58;26.65;;;;;;;12.70;73.92;102525.41;5070600;28;20457;-68
2022/05/06 07:37:36;;;;;;;53.08;25.13;;;;;;;12.58;73.91;102518.50;5082225;28;20452;-69
2022/05/06 07:40:05;;;;;;;44.25;25.33;;;;;;;12.56;74.85;102517.66;5097941;28;20044;-70
2022/05/06 07:42:33;;;;;;;38.97;22.35;;;;;;;12.66;74.75;102523.72;5089394;28;21140;-67
2022/05/06 07:45:00;;;;;;;39.00;23.13;;;;;;;12.74;74.59;102523.59;5076494;28;20038;-69
2022/05/06 07:47:28;;;;;;;50.33;22.45;;;;;;;12.64;74.06;102527.25;5075610;28;20040;-68
2022/05/06 07:50:16;;;;;;;32.45;21.38;;;;;;;12.69;74.33;102523.66;5092039;28;20041;-68
2022/05/06 07:52:43;;;;;;;48.30;23.27;;;;;;;12.62;74.29;102526.38;5090177;28;20494;-69
2022/05/06 07:55:13;;;;;;;40.83;22.63;;;;;;;12.65;74.72;102521.97;5091153;28;20048;-68
2022/05/06 07:57:41;;;;;;;41.60;23.08;;;;;;;12.77;74.63;102525.34;5067864;28;20052;-67
2022/05/06 08:00:09;;;;;;;51.45;23.88;;;;;;;12.89;74.20;102527.81;5070093;28;20077;-69
2022/05/06 08:05:27;;;;;;;41.08;22.52;;;;;;;13.08;73.48;102512.56;5050304;28;20045;-69
2022/05/06 08:07:55;;;;;;;44.65;22.95;;;;;;;13.13;73.49;102523.09;5061973;28;20055;-68
2022/05/06 08:10:22;;;;;;;40.55;22.60;;;;;;;13.27;73.15;102528.19;5069788;28;20033;-69
2022/05/06 08:12:50;;;;;;;40.63;24.25;;;;;;;13.27;73.25;102533.47;5070123;28;20044;-67
2022/05/06 08:15:18;;;;;;;38.60;23.38;;;;;;;13.32;73.01;102534.31;5069239;28;20033;-70
2022/05/06 08:17:45;;;;;;;54.00;24.60;;;;;;;13.41;73.28;102533.31;5066534;28;20044;-69
2022/05/06 08:20:12;;;;;;;46.38;24.27;;;;;;;13.59;72.77;102532.16;5090235;28;20032;-70
2022/05/06 08:22:39;;;;;;;52.88;26.45;;;;;;;13.76;72.13;102542.47;5090039;28;20037;-69
2022/05/06 08:25:08;;;;;;;38.03;22.40;;;;;;;13.75;71.78;102530.13;5073341;28;20114;-67
2022/05/06 08:27:53;;;;;;;47.42;25.02;;;;;;;13.89;71.82;102537.84;5075389;28;20104;-70
2022/05/06 08:30:20;;;;;;;45.25;25.35;;;;;;;14.06;71.38;102525.16;5083848;28;20037;-69
2022/05/06 08:32:48;;;;;;;40.58;24.95;;;;;;;14.19;71.15;102528.47;5059568;28;20041;-70
2022/05/06 08:35:19;;;;;;;40.13;23.83;;;;;;;14.33;70.86;102533.50;5057569;28;20056;-69
2022/05/06 08:37:53;;;;;;;44.00;24.73;;;;;;;14.48;69.79;102520.84;5063295;28;20468;-70
2022/05/06 08:40:26;;;;;;;44.65;24.83;;;;;;;14.65;69.48;102531.13;5063168;28;20045;-70
2022/05/06 08:42:53;;;;;;;41.47;24.42;;;;;;;14.88;68.44;102523.59;5061502;28;20052;-69
2022/05/06 08:50:56;;;;;;;39.92;24.80;;;;;;;15.43;66.69;102515.22;5055358;28;20124;-70
2022/05/06 08:53:29;;;;;;;41.67;23.98;;;;;;;15.61;66.48;102513.06;5052074;28;20128;-69
2022/05/06 08:56:04;;;;;;;37.03;22.40;;;;;;;15.75;66.04;102510.91;5061394;28;20065;-69
2022/05/06 08:58:41;;;;;;;38.40;23.63;;;;;;;15.88;65.54;102515.94;5057550;28;20092;-70
2022/05/06 09:01:12;;;;;;;39.67;23.15;;;;;;;15.81;65.71;102509.88;5063865;28;20037;-69
2022/05/06 09:03:48;;;;;;;34.97;22.73;;;;;;;15.74;65.90;102508.28;5061755;28;20082;-70
2022/05/06 09:06:25;;;;;;;40.67;22.80;;;;;;;15.87;65.41;102507.13;5063017;28;20404;-70
2022/05/06 09:08:56;;;;;;;38.97;23.75;;;;;;;15.78;65.50;102507.28;5063019;28;20037;-71
2022/05/06 09:16:39;;;;;;;38.20;22.23;;;;;;;16.00;65.24;102499.69;5067551;28;20585;-69
2022/05/06 09:17:22;;;;;;;33.00;21.48;;;;;;;16.26;65.16;102504.28;5076897;28;20051;-71
2022/05/06 09:19:51;;;;;;;32.92;21.60;;;;;;;16.49;64.33;102494.75;5052555;28;20033;-72
2022/05/06 09:22:19;;;;;;;30.05;20.58;;;;;;;16.69;63.30;102502.16;5065441;28;20139;-71
2022/05/06 09:24:47;;;;;;;31.88;21.13;;;;;;;16.83;62.87;102495.56;5052643;28;20042;-71
2022/05/06 09:27:23;;;;;;;28.55;19.77;;;;;;;16.88;61.71;102497.16;5063804;28;20072;-70
2022/05/06 09:29:51;;;;;;;39.53;19.90;;;;;;;16.87;61.98;102498.09;5064382;28;20040;-70
2022/05/06 09:32:19;;;;;;;28.48;19.85;;;;;;;16.82;61.64;102497.34;5062723;28;20112;-70
2022/05/06 09:34:58;;;;;;;27.55;19.48;;;;;;;16.90;61.49;102492.63;5060608;28;20048;-71
2022/05/06 09:37:32;;;;;;;33.17;21.40;;;;;;;17.05;61.67;102488.66;5061798;28;20041;-70
2022/05/06 09:40:03;;;;;;;41.05;20.88;;;;;;;17.27;61.17;102487.13;5052328;28;20049;-72
2022/05/06 09:42:32;;;;;;;28.50;19.58;;;;;;;17.42;60.11;102488.41;5068838;28;20040;-69
2022/05/06 09:45:01;;;;;;;32.40;17.55;;;;;;;17.54;59.99;102485.34;5064495;28;20041;-70
2022/05/06 09:47:28;;;;;;;34.42;18.15;;;;;;;17.69;59.51;102487.47;5061673;28;20508;-71
2022/05/06 09:49:55;;;;;;;28.48;17.90;;;;;;;17.89;59.54;102488.56;5061434;28;20510;-70
2022/05/06 09:52:22;;;;;;;23.52;17.80;;;;;;;18.09;58.41;102481.69;5062346;28;20036;-70
2022/05/06 09:54:53;;;;;;;21.00;14.93;;;;;;;18.23;57.28;102482.06;5055989;28;20038;-70
2022/05/06 09:57:20;;;;;;;24.58;14.45;;;;;;;18.29;56.69;102476.50;5054473;28;20049;-71
2022/05/06 09:59:48;;;;;;;19.95;14.93;;;;;;;18.37;55.48;102478.00;5056980;28;20094;-70
2022/05/06 10:02:15;;;;;;;23.17;14.30;;;;;;;18.44;56.08;102480.38;5065872;28;20171;-70
2022/05/06 10:04:43;;;;;;;19.30;14.38;;;;;;;18.58;55.43;102463.84;5055109;28;20083;-72
2022/05/06 10:07:14;;;;;;;17.83;12.35;;;;;;;18.74;55.55;102463.25;5064825;28;20125;-70
2022/05/06 10:10:01;;;;;;;25.13;12.70;;;;;;;18.78;54.61;102465.75;5050906;28;20116;-69
2022/05/06 10:12:37;;;;;;;22.77;13.73;;;;;;;18.95;54.68;102466.03;5059990;28;20083;-70
2022/05/06 10:15:08;;;;;;;25.85;13.05;;;;;;;19.11;53.36;102468.97;5063193;28;20048;-70
2022/05/06 10:17:59;;;;;;;20.17;12.82;;;;;;;19.16;53.76;102466.97;5054741;28;20049;-71
2022/05/06 10:20:41;;;;;;;17.10;12.55;;;;;;;19.35;53.49;102465.25;5068189;28;20041;-71
2022/05/06 10:23:12;;;;;;;15.90;10.98;;;;;;;19.49;52.17;102466.50;5067910;28;20068;-70
2022/05/06 10:25:40;;;;;;;17.33;10.93;;;;;;;19.53;51.71;102463.63;5067207;28;20052;-70
2022/05/06 10:34:14;;;;;;;21.38;13.20;;;;;;;20.24;50.80;102465.03;5063503;28;20041;-71
2022/05/06 10:36:53;;;;;;;18.13;12.60;;;;;;;20.33;50.80;102458.38;5051146;28;20041;-68
2022/05/06 10:39:32;;;;;;;22.02;10.57;;;;;;;20.32;49.44;102464.66;5053494;28;20482;-71
2022/05/06 10:42:07;;;;;;;18.33;12.38;;;;;;;20.31;49.89;102447.75;5053392;28;20716;-70
2022/05/06 10:44:44;;;;;;;14.52;10.80;;;;;;;20.39;50.02;102457.22;5053849;28;20119;-70
2022/05/06 10:47:12;;;;;;;17.25;10.50;;;;;;;20.48;48.99;102449.63;5056564;28;20045;-70
2022/05/06 10:49:39;;;;;;;17.58;11.40;;;;;;;20.50;48.65;102449.56;5060587;28;20042;-70
2022/05/06 10:52:15;;;;;;;18.40;11.02;;;;;;;20.56;48.34;102443.91;5053271;28;20652;-71
2022/05/06 10:54:50;;;;;;;14.85;10.30;;;;;;;20.59;48.67;102443.75;5054882;28;20045;-70
2022/05/06 10:57:20;;;;;;;26.38;11.98;;;;;;;20.64;48.26;102439.06;5054906;28;20083;-71
2022/05/06 10:59:48;;;;;;;15.63;11.02;;;;;;;20.81;46.81;102439.22;5059584;28;20494;-69
2022/05/06 11:02:31;;;;;;;17.67;12.60;;;;;;;20.92;47.68;102437.75;5080887;28;20055;-70
2022/05/06 11:05:01;;;;;;;14.02;11.27;;;;;;;21.04;47.30;102430.91;5051363;28;20056;-70
2022/05/06 11:07:32;;;;;;;15.18;10.73;;;;;;;21.08;47.47;102429.81;5047692;28;20034;-70
2022/05/06 11:10:18;;;;;;;25.45;11.70;;;;;;;21.22;47.31;102431.81;5051083;28;20053;-70
2022/05/06 11:12:51;;;;;;;16.77;11.00;;;;;;;21.36;47.53;102427.56;5057617;28;20045;-70
2022/05/06 11:15:28;;;;;;;15.38;10.77;;;;;;;21.53;46.48;102427.56;5057026;28;20192;-71
2022/05/06 11:18:01;;;;;;;11.13;8.65;;;;;;;21.71;44.63;102416.84;5067547;28;20037;-71
2022/05/06 11:20:38;;;;;;;11.05;8.02;;;;;;;21.77;42.79;102412.97;5070763;28;20056;-69
2022/05/06 11:23:15;;;;;;;9.57;7.00;;;;;;;21.88;42.94;102410.56;5068048;28;20040;-69
2022/05/06 11:25:48;;;;;;;12.20;7.90;;;;;;;21.84;42.81;102407.19;5062760;28;20052;-70
2022/05/06 11:28:24;;;;;;;10.27;7.70;;;;;;;21.96;43.91;102419.09;5056980;28;20045;-69
2022/05/06 11:30:54;;;;;;;9.63;7.63;;;;;;;22.08;42.56;102408.63;5063098;28;20046;-69
2022/05/06 11:33:40;;;;;;;32.97;8.13;;;;;;;22.16;42.32;102419.81;5059789;28;20570;-70
2022/05/06 11:36:08;;;;;;;11.52;8.68;;;;;;;22.21;43.11;102404.34;5065458;28;20124;-69
2022/05/06 11:38:46;;;;;;;23.23;8.57;;;;;;;22.39;42.53;102405.09;5067090;28;20123;-71
2022/05/06 11:41:17;;;;;;;9.35;7.05;;;;;;;22.52;40.61;102405.34;5068791;28;20136;-70
2022/05/06 11:43:46;;;;;;;10.57;7.40;;;;;;;22.43;39.66;102408.53;5059191;28;20752;-70
2022/05/06 11:49:06;;;;;;;8.27;6.57;;;;;;;22.50;40.14;102393.81;5053540;28;20030;-69
2022/05/06 11:51:44;;;;;;;7.25;6.07;;;;;;;22.51;39.84;102391.97;5054730;28;20045;-70
2022/05/06 11:54:16;;;;;;;8.98;7.03;;;;;;;22.65;40.76;102389.38;5060478;28;20038;-70
2022/05/06 11:56:46;;;;;;;9.20;6.38;;;;;;;22.92;40.31;102383.34;5056987;28;20042;-70
2022/05/06 11:59:16;;;;;;;23.58;8.15;;;;;;;23.13;39.70;102386.59;5059604;28;20118;-69
2022/05/06 12:01:43;;;;;;;20.13;7.03;;;;;;;23.31;40.26;102378.41;5062559;28;20029;-69
2022/05/06 12:04:11;;;;;;;14.90;6.65;;;;;;;23.48;39.03;102383.63;5065717;28;20132;-71
2022/05/06 12:06:48;;;;;;;12.93;7.40;;;;;;;23.63;38.48;102378.28;5053464;28;20055;-70
2022/05/06 12:09:21;;;;;;;9.82;7.57;;;;;;;23.56;38.09;102373.25;5049209;28;20050;-70
2022/05/06 12:12:08;;;;;;;8.52;6.28;;;;;;;23.56;38.60;102370.56;5061311;28;20049;-70
2022/05/06 12:14:35;;;;;;;19.50;8.40;;;;;;;23.63;38.03;102362.97;5060358;28;20048;-71